createdAt,value
2023-04-27T00:00:17.946Z,4.90
2023-04-27T00:02:47.711Z,4.84
2023-04-27T00:05:20.861Z,4.78
2023-04-27T00:07:50.787Z,4.73
2023-04-27T00:10:20.466Z,4.69
2023-04-27T00:12:50.156Z,4.65
2023-04-27T00:15:19.843Z,4.56
2023-04-27T00:17:49.584Z,4.52
2023-04-27T00:20:22.011Z,4.46
2023-04-27T00:22:51.913Z,4.41
2023-04-27T00:25:21.602Z,4.36
2023-04-27T00:27:51.335Z,4.29
2023-04-27T00:30:21.139Z,4.26
2023-04-27T00:32:50.962Z,4.21
2023-04-27T00:35:23.430Z,4.15
2023-04-27T00:37:53.117Z,4.11
2023-04-27T00:40:23.649Z,4.06
2023-04-27T00:42:53.441Z,4.01
2023-04-27T00:45:23.224Z,3.97
2023-04-27T00:47:53.017Z,3.93
2023-04-27T00:50:31.290Z,3.89
2023-04-27T00:53:01.609Z,3.86
2023-04-27T00:55:31.400Z,3.84
2023-04-27T00:58:01.277Z,3.80
2023-04-27T01:00:31.178Z,3.73
2023-04-27T01:03:01.313Z,3.69
2023-04-27T01:05:34.124Z,3.63
2023-04-27T01:08:03.911Z,3.62
2023-04-27T01:10:33.597Z,3.59
2023-04-27T01:13:03.447Z,3.55
2023-04-27T01:15:34.221Z,3.51
2023-04-27T01:18:04.735Z,3.45
2023-04-27T01:20:38.942Z,3.40
2023-04-27T01:23:08.908Z,3.36
2023-04-27T01:25:41.345Z,3.32
2023-04-27T01:28:11.173Z,3.28
2023-04-27T01:30:40.804Z,3.25
2023-04-27T01:33:11.000Z,3.21
2023-04-27T01:35:40.730Z,3.19
2023-04-27T01:38:10.406Z,3.14
2023-04-27T01:40:42.990Z,3.09
2023-04-27T01:43:12.824Z,3.03
2023-04-27T01:45:42.524Z,3.01
2023-04-27T01:48:12.285Z,2.99
2023-04-27T01:50:41.933Z,2.96
2023-04-27T01:53:11.624Z,2.93
2023-04-27T01:55:43.936Z,2.89
2023-04-27T01:58:13.965Z,2.86
2023-04-27T02:00:44.667Z,2.81
2023-04-27T02:03:14.480Z,2.78
2023-04-27T02:05:44.588Z,2.74
2023-04-27T02:08:15.730Z,2.72
2023-04-27T02:10:48.172Z,2.70
2023-04-27T02:13:19.790Z,2.68
2023-04-27T02:15:49.738Z,2.66
2023-04-27T02:18:20.299Z,2.62
2023-04-27T02:20:50.158Z,2.58
2023-04-27T02:23:19.929Z,2.55
2023-04-27T02:25:52.270Z,2.52
2023-04-27T02:28:22.186Z,2.49
2023-04-27T02:30:52.442Z,2.45
2023-04-27T02:33:22.223Z,2.42
2023-04-27T02:35:51.849Z,2.39
2023-04-27T02:38:21.672Z,2.36
2023-04-27T02:40:58.653Z,2.30
2023-04-27T02:43:29.412Z,2.27
2023-04-27T02:45:59.509Z,2.24
2023-04-27T02:48:31.290Z,2.20
2023-04-27T02:51:01.191Z,2.17
2023-04-27T02:53:30.887Z,2.13
2023-04-27T02:56:03.526Z,2.12
2023-04-27T02:58:33.626Z,2.09
2023-04-27T03:01:03.277Z,2.06
2023-04-27T03:03:33.073Z,2.01
2023-04-27T03:06:03.798Z,1.99
2023-04-27T03:08:33.467Z,1.95
2023-04-27T03:11:05.956Z,1.94
2023-04-27T03:13:41.969Z,1.92
2023-04-27T03:16:13.058Z,1.88
2023-04-27T03:18:43.049Z,1.83
2023-04-27T03:21:13.307Z,1.79
2023-04-27T03:23:43.721Z,1.79
2023-04-27T03:26:16.935Z,1.78
2023-04-27T03:28:46.676Z,1.75
2023-04-27T03:31:17.605Z,1.72
2023-04-27T03:33:47.357Z,1.69
2023-04-27T03:36:18.357Z,1.66
2023-04-27T03:38:48.022Z,1.64
2023-04-27T03:41:20.584Z,1.62
2023-04-27T03:43:52.936Z,1.59
2023-04-27T03:46:22.722Z,1.58
2023-04-27T03:48:52.784Z,1.57
2023-04-27T03:51:22.710Z,1.55
2023-04-27T03:53:52.422Z,1.53
2023-04-27T03:56:24.714Z,1.52
2023-04-27T03:58:54.420Z,1.50
2023-04-27T04:01:30.951Z,1.47
2023-04-27T04:04:00.943Z,1.46
2023-04-27T04:06:31.259Z,1.45
2023-04-27T04:09:01.207Z,1.43
2023-04-27T04:11:34.019Z,1.42
2023-04-27T04:14:07.487Z,1.42
2023-04-27T04:16:37.236Z,1.43
2023-04-27T04:19:07.116Z,1.39
2023-04-27T04:21:36.902Z,1.38
2023-04-27T04:24:07.582Z,1.36
2023-04-27T04:26:40.270Z,1.34
2023-04-27T04:29:11.217Z,1.33
2023-04-27T04:31:41.612Z,1.31
2023-04-27T04:34:13.056Z,1.29
2023-04-27T04:36:43.558Z,1.30
2023-04-27T04:39:15.938Z,1.28
2023-04-27T04:41:49.523Z,1.27
2023-04-27T04:44:20.929Z,1.26
2023-04-27T04:46:51.364Z,1.26
2023-04-27T04:49:21.168Z,1.26
2023-04-27T04:51:53.086Z,1.26
2023-04-27T04:54:23.063Z,1.27
2023-04-27T04:56:55.483Z,1.28
2023-04-27T04:59:25.257Z,1.28
2023-04-27T05:01:56.053Z,1.27
2023-04-27T05:04:26.786Z,1.27
2023-04-27T05:06:56.658Z,1.27
2023-04-27T05:09:26.508Z,1.28
2023-04-27T05:11:58.881Z,1.28
2023-04-27T05:14:28.628Z,1.30
2023-04-27T05:16:58.286Z,1.32
2023-04-27T05:19:27.938Z,1.32
2023-04-27T05:21:57.668Z,1.33
2023-04-27T05:24:27.532Z,1.35
2023-04-27T05:27:02.145Z,1.35
2023-04-27T05:29:32.238Z,1.37
2023-04-27T05:32:02.130Z,1.38
2023-04-27T05:34:31.815Z,1.40
2023-04-27T05:37:01.472Z,1.42
2023-04-27T05:39:31.320Z,1.45
2023-04-27T05:42:03.676Z,1.49
2023-04-27T05:44:33.430Z,1.50
2023-04-27T05:47:03.190Z,1.52
2023-04-27T05:49:32.860Z,1.56
2023-04-27T05:52:02.469Z,1.59
2023-04-27T05:54:32.135Z,1.63
2023-04-27T05:57:04.473Z,1.67
2023-04-27T05:59:34.288Z,1.70
2023-04-27T06:02:04.154Z,1.72
2023-04-27T06:04:34.126Z,1.77
2023-04-27T06:07:04.227Z,1.80
2023-04-27T06:09:34.292Z,1.85
2023-04-27T06:12:06.711Z,1.89
2023-04-27T06:14:37.972Z,1.95
2023-04-27T06:17:07.749Z,1.99
2023-04-27T06:19:37.425Z,2.03
2023-04-27T06:22:07.232Z,2.08
2023-04-27T06:24:37.043Z,2.13
2023-04-27T06:27:09.429Z,2.20
2023-04-27T06:29:39.220Z,2.26
2023-04-27T06:32:08.944Z,2.34
2023-04-27T06:34:38.658Z,2.39
2023-04-27T06:37:08.290Z,2.48
2023-04-27T06:39:38.149Z,2.56
2023-04-27T06:42:10.565Z,2.65
2023-04-27T06:44:40.729Z,2.74
2023-04-27T06:47:11.004Z,2.89
2023-04-27T06:49:40.766Z,3.03
2023-04-27T06:52:10.466Z,3.25
2023-04-27T06:54:40.273Z,3.44
2023-04-27T06:57:12.694Z,3.62
2023-04-27T06:59:42.521Z,3.78
2023-04-27T07:02:12.192Z,3.91
2023-04-27T07:04:43.450Z,4.01
2023-04-27T07:07:13.400Z,4.14
2023-04-27T07:09:43.065Z,4.28
2023-04-27T07:12:15.402Z,4.43
2023-04-27T07:14:45.131Z,4.56
2023-04-27T07:17:14.784Z,4.67
2023-04-27T07:19:44.502Z,4.90
2023-04-27T07:22:16.155Z,4.98
2023-04-27T07:24:46.136Z,5.16
2023-04-27T07:27:18.521Z,5.28
2023-04-27T07:29:48.321Z,5.41
2023-04-27T07:32:18.113Z,5.54
2023-04-27T07:34:53.645Z,5.67
2023-04-27T07:37:24.230Z,5.79
2023-04-27T07:39:54.929Z,5.96
2023-04-27T07:42:27.303Z,6.11
2023-04-27T07:44:57.325Z,6.28
2023-04-27T07:47:27.217Z,6.43
2023-04-27T07:49:56.908Z,6.59
2023-04-27T07:52:26.608Z,6.76
2023-04-27T07:54:56.391Z,6.88
2023-04-27T07:57:28.711Z,7.07
2023-04-27T07:59:59.931Z,7.22
2023-04-27T08:02:31.850Z,7.36
2023-04-27T08:05:03.151Z,7.46
2023-04-27T08:07:35.330Z,7.64
2023-04-27T08:10:07.781Z,7.80
2023-04-27T08:12:40.048Z,7.93
2023-04-27T08:15:11.152Z,8.08
2023-04-27T08:17:42.061Z,8.20
2023-04-27T08:20:14.239Z,8.34
2023-04-27T08:22:44.322Z,8.44
2023-04-27T08:25:14.041Z,8.63
2023-04-27T08:27:46.287Z,8.75
2023-04-27T08:30:16.864Z,8.90
2023-04-27T08:32:46.616Z,9.04
2023-04-27T08:35:16.342Z,9.19
2023-04-27T08:37:46.573Z,9.34
2023-04-27T08:40:17.015Z,9.39
2023-04-27T08:42:57.807Z,9.63
2023-04-27T08:45:28.814Z,9.72
2023-04-27T08:47:58.702Z,9.91
2023-04-27T08:50:28.863Z,9.93
2023-04-27T08:52:58.509Z,10.11
2023-04-27T08:55:28.271Z,10.19
2023-04-27T08:58:01.818Z,10.29
2023-04-27T09:00:41.774Z,10.31
2023-04-27T09:03:17.156Z,10.46
2023-04-27T09:06:00.643Z,10.58
2023-04-27T09:08:44.535Z,10.55
2023-04-27T09:11:14.366Z,10.70
2023-04-27T09:13:47.134Z,10.78
2023-04-27T09:16:17.269Z,10.83
2023-04-27T09:18:47.531Z,10.89
2023-04-27T09:21:25.120Z,11.03
2023-04-27T09:23:55.167Z,11.17
2023-04-27T09:26:26.943Z,11.17
2023-04-27T09:28:59.819Z,11.28
2023-04-27T09:31:34.393Z,11.33
2023-04-27T09:34:04.666Z,11.36
2023-04-27T09:36:35.238Z,11.46
2023-04-27T09:39:07.104Z,11.60
2023-04-27T09:41:37.153Z,11.67
2023-04-27T09:44:10.541Z,11.62
2023-04-27T09:46:40.264Z,11.74
2023-04-27T09:49:10.106Z,11.68
2023-04-27T09:51:39.831Z,11.75
2023-04-27T09:54:11.228Z,11.95
2023-04-27T09:56:45.399Z,11.93
2023-04-27T09:59:34.098Z,11.98
2023-04-27T10:02:17.038Z,12.09
2023-04-27T10:05:09.078Z,11.91
2023-04-27T10:07:38.881Z,11.75
2023-04-27T10:10:09.635Z,11.81
2023-04-27T10:12:39.587Z,11.85
2023-04-27T10:15:19.673Z,11.95
2023-04-27T10:17:55.208Z,12.08
2023-04-27T10:20:32.268Z,12.14
2023-04-27T10:23:03.008Z,11.94
2023-04-27T10:25:40.524Z,12.05
2023-04-27T10:28:10.683Z,12.16
2023-04-27T10:30:49.121Z,12.09
2023-04-27T10:33:19.781Z,12.37
2023-04-27T10:35:57.706Z,12.50
2023-04-27T10:38:31.637Z,12.55
2023-04-27T10:41:02.857Z,12.48
2023-04-27T10:43:33.866Z,12.49
2023-04-27T10:46:16.804Z,12.64
2023-04-27T10:48:47.462Z,12.65
2023-04-27T10:51:19.088Z,12.70
2023-04-27T10:53:48.953Z,12.83
2023-04-27T10:56:18.690Z,12.98
2023-04-27T10:58:49.501Z,13.10
2023-04-27T11:01:29.976Z,13.13
2023-04-27T11:04:00.206Z,13.14
2023-04-27T11:06:32.275Z,13.21
2023-04-27T11:09:02.503Z,13.24
2023-04-27T11:11:32.378Z,13.31
2023-04-27T11:14:03.620Z,13.39
2023-04-27T11:16:36.386Z,13.47
2023-04-27T11:19:09.112Z,13.37
2023-04-27T11:21:39.047Z,13.36
2023-04-27T11:24:10.317Z,13.26
2023-04-27T11:26:40.789Z,13.34
2023-04-27T11:29:14.265Z,13.56
2023-04-27T11:31:49.463Z,13.63
2023-04-27T11:34:20.034Z,13.75
2023-04-27T11:37:10.642Z,13.78
2023-04-27T11:39:44.824Z,13.72
2023-04-27T11:42:19.336Z,13.77
2023-04-27T11:44:54.994Z,13.91
2023-04-27T11:47:28.359Z,13.98
2023-04-27T11:49:59.734Z,13.98
2023-04-27T11:52:31.995Z,13.96
2023-04-27T11:55:03.432Z,13.96
2023-04-27T11:57:35.055Z,14.02
2023-04-27T12:00:11.323Z,14.17
2023-04-27T12:02:47.853Z,14.30
2023-04-27T12:05:18.220Z,14.38
2023-04-27T12:07:47.959Z,14.49
2023-04-27T12:10:17.739Z,14.61
2023-04-27T12:12:47.670Z,14.75
2023-04-27T12:15:17.337Z,14.79
2023-04-27T12:17:49.671Z,14.82
2023-04-27T12:20:19.688Z,14.62
2023-04-27T12:22:49.337Z,14.72
2023-04-27T12:25:19.866Z,14.78
2023-04-27T12:27:50.222Z,14.86
2023-04-27T12:30:20.390Z,14.89
2023-04-27T12:32:52.744Z,14.93
2023-04-27T12:35:22.456Z,15.03
2023-04-27T12:37:52.893Z,15.14
2023-04-27T12:40:23.370Z,15.05
2023-04-27T12:42:53.181Z,15.08
2023-04-27T12:45:22.924Z,15.12
2023-04-27T12:48:03.501Z,15.26
2023-04-27T12:50:34.004Z,15.13
2023-04-27T12:53:03.710Z,15.18
2023-04-27T12:55:34.450Z,14.95
2023-04-27T12:58:04.872Z,14.86
2023-04-27T13:00:34.598Z,14.94
2023-04-27T13:03:07.909Z,15.13
2023-04-27T13:05:38.450Z,15.17
2023-04-27T13:08:08.284Z,15.25
2023-04-27T13:10:38.018Z,15.38
2023-04-27T13:13:07.988Z,15.46
2023-04-27T13:15:38.809Z,15.50
2023-04-27T13:18:11.657Z,15.35
2023-04-27T13:20:41.384Z,15.37
2023-04-27T13:23:11.237Z,15.34
2023-04-27T13:25:41.496Z,15.46
2023-04-27T13:28:11.210Z,15.50
2023-04-27T13:30:40.899Z,15.49
2023-04-27T13:33:22.750Z,15.56
2023-04-27T13:35:53.556Z,15.54
2023-04-27T13:38:23.400Z,15.50
2023-04-27T13:40:53.139Z,15.54
2023-04-27T13:43:22.903Z,15.50
2023-04-27T13:45:52.647Z,15.52
2023-04-27T13:48:25.275Z,15.36
2023-04-27T13:50:55.011Z,15.47
2023-04-27T13:53:25.933Z,15.46
2023-04-27T13:55:56.053Z,15.44
2023-04-27T13:58:26.426Z,15.48
2023-04-27T14:00:56.614Z,15.48
2023-04-27T14:03:29.780Z,15.52
2023-04-27T14:05:59.693Z,15.56
2023-04-27T14:08:29.351Z,15.60
2023-04-27T14:10:59.013Z,15.69
2023-04-27T14:13:28.709Z,15.76
2023-04-27T14:15:58.467Z,15.82
2023-04-27T14:18:32.793Z,15.90
2023-04-27T14:21:03.014Z,15.88
2023-04-27T14:23:33.110Z,15.74
2023-04-27T14:26:02.800Z,15.73
2023-04-27T14:28:32.639Z,15.75
2023-04-27T14:31:02.287Z,15.74
2023-04-27T14:33:34.735Z,15.71
2023-04-27T14:36:04.463Z,15.70
2023-04-27T14:38:34.214Z,15.64
2023-04-27T14:41:03.983Z,15.54
2023-04-27T14:43:33.697Z,15.58
2023-04-27T14:46:12.406Z,15.59
2023-04-27T14:48:52.677Z,15.57
2023-04-27T14:51:22.976Z,15.58
2023-04-27T14:53:52.765Z,15.58
2023-04-27T14:56:23.343Z,15.62
2023-04-27T14:58:53.104Z,15.66
2023-04-27T15:01:22.916Z,15.55
2023-04-27T15:03:55.529Z,15.53
2023-04-27T15:06:28.110Z,15.48
2023-04-27T15:08:57.856Z,15.39
2023-04-27T15:11:27.586Z,15.42
2023-04-27T15:13:57.321Z,15.38
2023-04-27T15:16:27.889Z,15.35
2023-04-27T15:19:00.168Z,15.33
2023-04-27T15:21:29.913Z,15.31
2023-04-27T15:23:59.845Z,15.33
2023-04-27T15:26:29.848Z,15.31
2023-04-27T15:29:00.108Z,15.25
2023-04-27T15:31:29.946Z,15.37
2023-04-27T15:34:02.411Z,15.29
2023-04-27T15:36:32.531Z,15.31
2023-04-27T15:39:02.216Z,15.37
2023-04-27T15:41:32.319Z,15.38
2023-04-27T15:44:02.054Z,15.38
2023-04-27T15:46:31.873Z,15.38
2023-04-27T15:49:04.508Z,15.24
2023-04-27T15:51:34.295Z,15.25
2023-04-27T15:54:03.982Z,15.23
2023-04-27T15:56:33.702Z,15.17
2023-04-27T15:59:03.897Z,15.20
2023-04-27T16:01:33.687Z,15.10
2023-04-27T16:04:06.402Z,14.92
2023-04-27T16:06:37.663Z,14.91
2023-04-27T16:09:10.562Z,14.91
2023-04-27T16:11:40.528Z,14.88
2023-04-27T16:14:10.184Z,14.77
2023-04-27T16:16:39.995Z,14.80
2023-04-27T16:19:12.928Z,14.76
2023-04-27T16:21:43.363Z,14.76
2023-04-27T16:24:13.249Z,14.76
2023-04-27T16:26:43.015Z,14.70
2023-04-27T16:29:13.009Z,14.60
2023-04-27T16:31:44.932Z,14.49
2023-04-27T16:34:17.395Z,14.37
2023-04-27T16:36:48.588Z,14.34
2023-04-27T16:39:19.462Z,14.35
2023-04-27T16:41:49.611Z,14.34
2023-04-27T16:44:19.305Z,14.37
2023-04-27T16:46:50.695Z,14.25
2023-04-27T16:49:23.005Z,14.26
2023-04-27T16:51:54.444Z,14.27
2023-04-27T16:54:24.239Z,14.19
2023-04-27T16:56:55.088Z,14.16
2023-04-27T16:59:25.039Z,14.16
2023-04-27T17:01:54.826Z,14.08
2023-04-27T17:04:27.428Z,14.03
2023-04-27T17:06:57.199Z,14.12
2023-04-27T17:09:26.834Z,14.12
2023-04-27T17:11:56.466Z,14.15
2023-04-27T17:14:26.522Z,14.11
2023-04-27T17:16:56.200Z,14.09
2023-04-27T17:19:28.660Z,14.06
2023-04-27T17:21:58.384Z,14.06
2023-04-27T17:24:28.138Z,13.95
2023-04-27T17:26:57.798Z,13.92
2023-04-27T17:29:27.491Z,13.79
2023-04-27T17:31:57.216Z,13.69
2023-04-27T17:34:29.570Z,13.60
2023-04-27T17:36:59.304Z,13.49
2023-04-27T17:39:28.956Z,13.44
2023-04-27T17:41:59.087Z,13.37
2023-04-27T17:44:28.812Z,13.24
2023-04-27T17:46:58.752Z,13.16
2023-04-27T17:49:31.597Z,13.10
2023-04-27T17:52:01.491Z,13.02
2023-04-27T17:54:31.164Z,13.01
2023-04-27T17:57:00.824Z,12.96
2023-04-27T17:59:30.625Z,12.88
2023-04-27T18:02:00.482Z,12.92
2023-04-27T18:04:33.040Z,12.91
2023-04-27T18:07:02.890Z,12.90
2023-04-27T18:09:33.124Z,12.90
2023-04-27T18:12:03.201Z,12.83
2023-04-27T18:14:32.985Z,12.83
2023-04-27T18:17:02.666Z,12.82
2023-04-27T18:19:34.963Z,12.78
2023-04-27T18:22:04.677Z,12.74
2023-04-27T18:24:34.387Z,12.72
2023-04-27T18:27:04.194Z,12.66
2023-04-27T18:29:35.028Z,12.59
2023-04-27T18:32:05.786Z,12.60
2023-04-27T18:34:38.412Z,12.56
2023-04-27T18:37:08.116Z,12.49
2023-04-27T18:39:37.894Z,12.38
2023-04-27T18:42:07.644Z,12.35
2023-04-27T18:44:37.411Z,12.29
2023-04-27T18:47:07.911Z,12.23
2023-04-27T18:49:40.380Z,12.18
2023-04-27T18:52:11.689Z,12.19
2023-04-27T18:54:42.244Z,12.15
2023-04-27T18:57:12.043Z,12.13
2023-04-27T18:59:41.987Z,12.04
2023-04-27T19:02:11.752Z,11.99
2023-04-27T19:04:52.833Z,11.95
2023-04-27T19:07:31.976Z,11.93
2023-04-27T19:10:01.858Z,11.87
2023-04-27T19:12:31.717Z,11.84
2023-04-27T19:15:01.458Z,11.81
2023-04-27T19:17:31.497Z,11.79
2023-04-27T19:20:03.925Z,11.76
2023-04-27T19:22:35.051Z,11.76
2023-04-27T19:25:04.791Z,11.75
2023-04-27T19:27:34.643Z,11.69
2023-04-27T19:30:04.512Z,11.66
2023-04-27T19:32:36.460Z,11.62
2023-04-27T19:35:12.513Z,11.61
2023-04-27T19:37:42.332Z,11.59
2023-04-27T19:40:13.694Z,11.55
2023-04-27T19:42:43.717Z,11.54
2023-04-27T19:45:13.759Z,11.54
2023-04-27T19:47:43.458Z,11.49
2023-04-27T19:50:16.228Z,11.44
2023-04-27T19:52:46.162Z,11.41
2023-04-27T19:55:15.902Z,11.41
2023-04-27T19:57:45.720Z,11.38
2023-04-27T20:00:16.352Z,11.35
2023-04-27T20:02:46.275Z,11.34
2023-04-27T20:05:19.211Z,11.30
2023-04-27T20:07:50.123Z,11.30
2023-04-27T20:10:19.944Z,11.25
2023-04-27T20:12:56.722Z,11.24
2023-04-27T20:15:27.510Z,11.23
2023-04-27T20:17:57.435Z,11.19
2023-04-27T20:20:29.880Z,11.16
2023-04-27T20:22:59.672Z,11.16
2023-04-27T20:25:29.687Z,11.13
2023-04-27T20:27:59.416Z,11.11
2023-04-27T20:30:29.927Z,11.07
2023-04-27T20:35:34.114Z,10.99
2023-04-27T20:38:03.818Z,10.98
2023-04-27T20:40:33.600Z,10.95
2023-04-27T20:43:04.444Z,10.93
2023-04-27T20:45:34.438Z,10.88
2023-04-27T20:48:04.369Z,10.84
2023-04-27T20:50:37.202Z,10.81
2023-04-27T20:53:07.210Z,10.81
2023-04-27T20:55:37.135Z,10.77
2023-04-27T20:58:06.794Z,10.73
2023-04-27T21:00:36.435Z,10.70
2023-04-27T21:03:07.334Z,10.67
2023-04-27T21:05:41.131Z,10.63
2023-04-27T21:08:10.979Z,10.60
2023-04-27T21:10:41.189Z,10.57
2023-04-27T21:13:11.027Z,10.52
2023-04-27T21:15:41.126Z,10.48
2023-04-27T21:18:18.831Z,10.47
2023-04-27T21:20:55.482Z,10.42
2023-04-27T21:23:25.334Z,10.37
2023-04-27T21:25:55.037Z,10.33
2023-04-27T21:28:25.044Z,10.32
2023-04-27T21:30:54.785Z,10.30
2023-04-27T21:33:24.481Z,10.28
2023-04-27T21:35:57.340Z,10.27
2023-04-27T21:38:27.187Z,10.23
2023-04-27T21:40:56.854Z,10.21
2023-04-27T21:43:26.536Z,10.19
2023-04-27T21:45:56.218Z,10.16
2023-04-27T21:48:26.233Z,10.14
2023-04-27T21:50:58.570Z,10.12
2023-04-27T21:53:28.317Z,10.09
2023-04-27T21:55:59.352Z,10.03
2023-04-27T21:58:29.122Z,10.02
2023-04-27T22:00:58.808Z,10.00
2023-04-27T22:03:28.763Z,9.98
2023-04-27T22:06:01.183Z,9.97
2023-04-27T22:08:31.142Z,9.96
2023-04-27T22:11:01.489Z,9.93
2023-04-27T22:13:31.497Z,9.92
2023-04-27T22:16:01.531Z,9.92
2023-04-27T22:18:31.693Z,9.90
2023-04-27T22:21:04.183Z,9.88
2023-04-27T22:23:34.599Z,9.82
2023-04-27T22:26:04.570Z,9.82
2023-04-27T22:28:34.334Z,9.80
2023-04-27T22:31:04.058Z,9.77
2023-04-27T22:33:34.106Z,9.77
2023-04-27T22:36:06.710Z,9.76
2023-04-27T22:38:36.535Z,9.75
2023-04-27T22:41:06.196Z,9.72
2023-04-27T22:43:36.060Z,9.72
2023-04-27T22:46:05.759Z,9.68
2023-04-27T22:48:35.464Z,9.69
2023-04-27T22:51:10.959Z,9.67
2023-04-27T22:53:40.840Z,9.65
2023-04-27T22:56:10.940Z,9.65
2023-04-27T22:58:40.905Z,9.63
2023-04-27T23:01:10.649Z,9.63
2023-04-27T23:03:40.403Z,9.61
2023-04-27T23:06:15.471Z,9.60
2023-04-27T23:08:47.198Z,9.59
2023-04-27T23:11:19.007Z,9.58
2023-04-27T23:13:50.696Z,9.57
2023-04-27T23:16:20.436Z,9.56
2023-04-27T23:18:50.937Z,9.54
2023-04-27T23:21:23.181Z,9.53
2023-04-27T23:23:52.847Z,9.51
2023-04-27T23:26:22.541Z,9.50
2023-04-27T23:28:52.435Z,9.48
2023-04-27T23:31:22.121Z,9.46
2023-04-27T23:33:52.315Z,9.46
2023-04-27T23:36:24.544Z,9.45
2023-04-27T23:38:54.301Z,9.46
2023-04-27T23:41:23.989Z,9.46
2023-04-27T23:43:53.707Z,9.46
2023-04-27T23:46:23.458Z,9.45
2023-04-27T23:48:53.171Z,9.43
2023-04-27T23:51:25.489Z,9.42
2023-04-27T23:53:55.480Z,9.39
2023-04-27T23:56:26.196Z,9.39
2023-04-27T23:58:55.931Z,9.38
